Terminal Aerodrome Forecast
Issued by NWS

Home | Current Version | Previous Version | Text Only | Print | Product List | Glossary On
Versions: 1 2 3 4 5 6 7 8 9 10 11 12 13 14 15 16 17 18 19 20
000
FTUS46 KSGX 050219 AAA
TAFCRQ
TAF AMD
KCRQ 050219Z 0502/0524 24005KT P6SM OVC009
     FM051600 26004KT P6SM BKN011
     FM052000 26010KT P6SM BKN015
      TEMPO 0520/0524 SCT015=

USA.gov is the U.S. government's official web portal to all federal, state and local government web resources and services.